sensor_id;sensor_type;location;lat;lon;timestamp;P1;durP1;ratioP1;P2;durP2;ratioP2
24443;SDS011;13346;50.984;5.822;2023-02-26T00:01:12;4.57;;;2.40;;
24443;SDS011;13346;50.984;5.822;2023-02-26T00:03:40;2.87;;;1.80;;
24443;SDS011;13346;50.984;5.822;2023-02-26T00:06:07;2.50;;;2.07;;
24443;SDS011;13346;50.984;5.822;2023-02-26T00:08:34;3.93;;;1.60;;
24443;SDS011;13346;50.984;5.822;2023-02-26T00:11:04;5.03;;;1.70;;
24443;SDS011;13346;50.984;5.822;2023-02-26T00:13:32;2.80;;;2.60;;
24443;SDS011;13346;50.984;5.822;2023-02-26T00:16:01;3.20;;;1.83;;
24443;SDS011;13346;50.984;5.822;2023-02-26T00:18:30;1.50;;;1.43;;
24443;SDS011;13346;50.984;5.822;2023-02-26T00:20:58;4.17;;;2.10;;
24443;SDS011;13346;50.984;5.822;2023-02-26T00:23:26;4.73;;;1.60;;
24443;SDS011;13346;50.984;5.822;2023-02-26T00:25:53;2.60;;;1.83;;
24443;SDS011;13346;50.984;5.822;2023-02-26T00:28:20;4.60;;;2.00;;
24443;SDS011;13346;50.984;5.822;2023-02-26T00:30:48;6.20;;;1.63;;
24443;SDS011;13346;50.984;5.822;2023-02-26T00:33:16;10.27;;;2.47;;
24443;SDS011;13346;50.984;5.822;2023-02-26T00:35:45;5.03;;;1.77;;
24443;SDS011;13346;50.984;5.822;2023-02-26T00:38:14;11.37;;;2.50;;
24443;SDS011;13346;50.984;5.822;2023-02-26T00:40:44;2.77;;;1.70;;
24443;SDS011;13346;50.984;5.822;2023-02-26T00:43:13;4.67;;;2.63;;
24443;SDS011;13346;50.984;5.822;2023-02-26T00:45:44;4.53;;;1.73;;
24443;SDS011;13346;50.984;5.822;2023-02-26T00:48:26;4.50;;;2.00;;
24443;SDS011;13346;50.984;5.822;2023-02-26T00:51:06;9.10;;;2.47;;
24443;SDS011;13346;50.984;5.822;2023-02-26T00:53:43;2.10;;;1.27;;
24443;SDS011;13346;50.984;5.822;2023-02-26T00:56:15;4.50;;;1.33;;
24443;SDS011;13346;50.984;5.822;2023-02-26T00:58:43;2.47;;;2.13;;
24443;SDS011;13346;50.984;5.822;2023-02-26T01:01:10;2.53;;;1.73;;
24443;SDS011;13346;50.984;5.822;2023-02-26T01:03:37;2.23;;;2.00;;
24443;SDS011;13346;50.984;5.822;2023-02-26T01:06:10;5.10;;;2.00;;
24443;SDS011;13346;50.984;5.822;2023-02-26T01:08:40;2.23;;;2.03;;
24443;SDS011;13346;50.984;5.822;2023-02-26T01:11:13;5.03;;;2.00;;
24443;SDS011;13346;50.984;5.822;2023-02-26T01:13:41;2.93;;;1.93;;
24443;SDS011;13346;50.984;5.822;2023-02-26T01:16:12;1.73;;;1.57;;
24443;SDS011;13346;50.984;5.822;2023-02-26T01:18:47;1.87;;;1.60;;
24443;SDS011;13346;50.984;5.822;2023-02-26T01:21:21;2.73;;;2.53;;
24443;SDS011;13346;50.984;5.822;2023-02-26T01:23:52;3.50;;;1.93;;
24443;SDS011;13346;50.984;5.822;2023-02-26T01:26:21;5.27;;;2.40;;
24443;SDS011;13346;50.984;5.822;2023-02-26T01:28:49;7.37;;;2.27;;
24443;SDS011;13346;50.984;5.822;2023-02-26T01:31:21;8.17;;;2.20;;
24443;SDS011;13346;50.984;5.822;2023-02-26T01:33:58;9.87;;;2.37;;
24443;SDS011;13346;50.984;5.822;2023-02-26T01:36:31;5.57;;;1.97;;
24443;SDS011;13346;50.984;5.822;2023-02-26T01:39:03;8.20;;;2.57;;
24443;SDS011;13346;50.984;5.822;2023-02-26T01:41:35;3.60;;;2.37;;
24443;SDS011;13346;50.984;5.822;2023-02-26T01:44:10;6.80;;;2.67;;
24443;SDS011;13346;50.984;5.822;2023-02-26T01:46:45;2.53;;;2.10;;
24443;SDS011;13346;50.984;5.822;2023-02-26T01:49:27;2.63;;;1.70;;
24443;SDS011;13346;50.984;5.822;2023-02-26T01:51:57;4.77;;;2.03;;
24443;SDS011;13346;50.984;5.822;2023-02-26T01:54:27;5.33;;;2.27;;
24443;SDS011;13346;50.984;5.822;2023-02-26T01:56:58;4.80;;;1.50;;
24443;SDS011;13346;50.984;5.822;2023-02-26T01:59:29;5.97;;;2.30;;
24443;SDS011;13346;50.984;5.822;2023-02-26T02:01:57;7.03;;;1.67;;
24443;SDS011;13346;50.984;5.822;2023-02-26T02:04:28;1.73;;;1.63;;
24443;SDS011;13346;50.984;5.822;2023-02-26T02:06:59;2.50;;;2.00;;
24443;SDS011;13346;50.984;5.822;2023-02-26T02:09:26;2.47;;;1.93;;
24443;SDS011;13346;50.984;5.822;2023-02-26T02:11:58;6.40;;;1.80;;
24443;SDS011;13346;50.984;5.822;2023-02-26T02:14:39;3.10;;;2.10;;
24443;SDS011;13346;50.984;5.822;2023-02-26T02:17:12;2.73;;;2.10;;
24443;SDS011;13346;50.984;5.822;2023-02-26T02:19:54;1.60;;;1.50;;
24443;SDS011;13346;50.984;5.822;2023-02-26T02:22:49;4.40;;;1.70;;
24443;SDS011;13346;50.984;5.822;2023-02-26T02:25:34;28.47;;;2.23;;
24443;SDS011;13346;50.984;5.822;2023-02-26T02:28:30;3.13;;;2.13;;
24443;SDS011;13346;50.984;5.822;2023-02-26T02:31:07;3.67;;;1.73;;
24443;SDS011;13346;50.984;5.822;2023-02-26T02:33:39;6.03;;;2.03;;
24443;SDS011;13346;50.984;5.822;2023-02-26T02:36:11;5.57;;;1.63;;
24443;SDS011;13346;50.984;5.822;2023-02-26T02:38:44;3.60;;;2.23;;
24443;SDS011;13346;50.984;5.822;2023-02-26T02:41:14;2.70;;;2.10;;
24443;SDS011;13346;50.984;5.822;2023-02-26T02:43:45;1.93;;;1.50;;
24443;SDS011;13346;50.984;5.822;2023-02-26T02:46:17;7.50;;;2.03;;
24443;SDS011;13346;50.984;5.822;2023-02-26T02:48:52;5.37;;;2.47;;
24443;SDS011;13346;50.984;5.822;2023-02-26T02:51:26;4.27;;;2.10;;
24443;SDS011;13346;50.984;5.822;2023-02-26T02:53:59;2.60;;;1.70;;
24443;SDS011;13346;50.984;5.822;2023-02-26T02:56:33;8.80;;;2.40;;
24443;SDS011;13346;50.984;5.822;2023-02-26T02:59:05;7.80;;;1.60;;
24443;SDS011;13346;50.984;5.822;2023-02-26T03:01:40;7.40;;;2.20;;
24443;SDS011;13346;50.984;5.822;2023-02-26T03:04:10;1.53;;;1.23;;
24443;SDS011;13346;50.984;5.822;2023-02-26T03:06:39;4.20;;;1.90;;
24443;SDS011;13346;50.984;5.822;2023-02-26T03:09:08;4.60;;;1.63;;
24443;SDS011;13346;50.984;5.822;2023-02-26T03:11:36;3.30;;;1.77;;
24443;SDS011;13346;50.984;5.822;2023-02-26T03:14:03;1.50;;;1.50;;
24443;SDS011;13346;50.984;5.822;2023-02-26T03:16:43;2.77;;;1.53;;
24443;SDS011;13346;50.984;5.822;2023-02-26T03:19:23;4.23;;;1.80;;
24443;SDS011;13346;50.984;5.822;2023-02-26T03:21:59;2.00;;;0.87;;
24443;SDS011;13346;50.984;5.822;2023-02-26T03:24:31;1.47;;;1.37;;
24443;SDS011;13346;50.984;5.822;2023-02-26T03:27:04;1.37;;;1.30;;
24443;SDS011;13346;50.984;5.822;2023-02-26T03:29:37;1.70;;;1.60;;
24443;SDS011;13346;50.984;5.822;2023-02-26T03:32:14;1.40;;;1.30;;
24443;SDS011;13346;50.984;5.822;2023-02-26T03:34:49;2.00;;;1.77;;
24443;SDS011;13346;50.984;5.822;2023-02-26T03:37:19;1.40;;;1.30;;
24443;SDS011;13346;50.984;5.822;2023-02-26T03:39:51;1.13;;;1.03;;
24443;SDS011;13346;50.984;5.822;2023-02-26T03:42:21;1.57;;;1.47;;
24443;SDS011;13346;50.984;5.822;2023-02-26T03:44:54;0.83;;;0.63;;
24443;SDS011;13346;50.984;5.822;2023-02-26T03:47:27;2.83;;;1.30;;
24443;SDS011;13346;50.984;5.822;2023-02-26T03:49:56;4.93;;;0.97;;
24443;SDS011;13346;50.984;5.822;2023-02-26T03:52:27;1.17;;;1.17;;
24443;SDS011;13346;50.984;5.822;2023-02-26T03:55:00;5.67;;;1.30;;
24443;SDS011;13346;50.984;5.822;2023-02-26T03:57:31;2.53;;;1.37;;
24443;SDS011;13346;50.984;5.822;2023-02-26T03:59:58;0.80;;;0.80;;
24443;SDS011;13346;50.984;5.822;2023-02-26T04:02:29;7.60;;;1.70;;
24443;SDS011;13346;50.984;5.822;2023-02-26T04:05:02;4.33;;;1.90;;
24443;SDS011;13346;50.984;5.822;2023-02-26T04:07:32;5.27;;;1.60;;
24443;SDS011;13346;50.984;5.822;2023-02-26T04:09:59;1.17;;;1.17;;
24443;SDS011;13346;50.984;5.822;2023-02-26T04:12:26;2.63;;;0.90;;
24443;SDS011;13346;50.984;5.822;2023-02-26T04:14:54;1.50;;;1.40;;
24443;SDS011;13346;50.984;5.822;2023-02-26T04:17:22;1.60;;;1.10;;
24443;SDS011;13346;50.984;5.822;2023-02-26T04:19:50;1.23;;;1.13;;
24443;SDS011;13346;50.984;5.822;2023-02-26T04:22:17;0.90;;;0.90;;
24443;SDS011;13346;50.984;5.822;2023-02-26T04:24:44;3.87;;;1.70;;
24443;SDS011;13346;50.984;5.822;2023-02-26T04:27:12;6.03;;;0.90;;
24443;SDS011;13346;50.984;5.822;2023-02-26T04:29:39;1.17;;;0.50;;
24443;SDS011;13346;50.984;5.822;2023-02-26T04:32:06;3.93;;;1.20;;
24443;SDS011;13346;50.984;5.822;2023-02-26T04:34:33;0.60;;;0.50;;
24443;SDS011;13346;50.984;5.822;2023-02-26T04:37:02;4.20;;;1.30;;
24443;SDS011;13346;50.984;5.822;2023-02-26T04:39:29;3.90;;;1.00;;
24443;SDS011;13346;50.984;5.822;2023-02-26T04:41:56;0.97;;;0.97;;
24443;SDS011;13346;50.984;5.822;2023-02-26T04:44:23;1.17;;;0.93;;
24443;SDS011;13346;50.984;5.822;2023-02-26T04:46:50;1.90;;;1.00;;
24443;SDS011;13346;50.984;5.822;2023-02-26T04:49:17;3.07;;;0.90;;
24443;SDS011;13346;50.984;5.822;2023-02-26T04:51:45;1.63;;;1.53;;
24443;SDS011;13346;50.984;5.822;2023-02-26T04:54:13;2.07;;;1.30;;
24443;SDS011;13346;50.984;5.822;2023-02-26T04:56:40;2.20;;;0.50;;
24443;SDS011;13346;50.984;5.822;2023-02-26T04:59:08;1.10;;;1.03;;
24443;SDS011;13346;50.984;5.822;2023-02-26T05:01:35;5.73;;;1.07;;
24443;SDS011;13346;50.984;5.822;2023-02-26T05:04:02;1.17;;;1.17;;
24443;SDS011;13346;50.984;5.822;2023-02-26T05:06:29;0.47;;;0.47;;
24443;SDS011;13346;50.984;5.822;2023-02-26T05:08:56;2.90;;;1.50;;
24443;SDS011;13346;50.984;5.822;2023-02-26T05:11:25;4.43;;;1.37;;
24443;SDS011;13346;50.984;5.822;2023-02-26T05:13:52;1.57;;;1.40;;
24443;SDS011;13346;50.984;5.822;2023-02-26T05:16:19;2.30;;;1.23;;
24443;SDS011;13346;50.984;5.822;2023-02-26T05:18:46;4.50;;;1.30;;
24443;SDS011;13346;50.984;5.822;2023-02-26T05:21:13;7.00;;;1.13;;
24443;SDS011;13346;50.984;5.822;2023-02-26T05:23:40;0.80;;;0.80;;
24443;SDS011;13346;50.984;5.822;2023-02-26T05:26:08;1.83;;;1.17;;
24443;SDS011;13346;50.984;5.822;2023-02-26T05:28:36;1.73;;;0.77;;
24443;SDS011;13346;50.984;5.822;2023-02-26T05:31:03;1.07;;;1.07;;
24443;SDS011;13346;50.984;5.822;2023-02-26T05:33:31;0.83;;;0.43;;
24443;SDS011;13346;50.984;5.822;2023-02-26T05:35:58;0.80;;;0.80;;
24443;SDS011;13346;50.984;5.822;2023-02-26T05:38:26;0.83;;;0.47;;
24443;SDS011;13346;50.984;5.822;2023-02-26T05:40:54;0.90;;;0.50;;
24443;SDS011;13346;50.984;5.822;2023-02-26T05:43:23;1.83;;;1.73;;
24443;SDS011;13346;50.984;5.822;2023-02-26T05:45:52;0.67;;;0.60;;
24443;SDS011;13346;50.984;5.822;2023-02-26T05:48:20;1.97;;;1.17;;
24443;SDS011;13346;50.984;5.822;2023-02-26T05:50:47;0.63;;;0.63;;
24443;SDS011;13346;50.984;5.822;2023-02-26T05:53:15;0.40;;;0.40;;
24443;SDS011;13346;50.984;5.822;2023-02-26T05:55:42;2.07;;;0.93;;
24443;SDS011;13346;50.984;5.822;2023-02-26T05:58:09;0.20;;;0.20;;
24443;SDS011;13346;50.984;5.822;2023-02-26T06:00:37;0.57;;;0.57;;
24443;SDS011;13346;50.984;5.822;2023-02-26T06:03:05;3.43;;;1.30;;
24443;SDS011;13346;50.984;5.822;2023-02-26T06:05:32;0.67;;;0.67;;
24443;SDS011;13346;50.984;5.822;2023-02-26T06:08:00;0.80;;;0.40;;
24443;SDS011;13346;50.984;5.822;2023-02-26T06:10:27;1.20;;;0.50;;
24443;SDS011;13346;50.984;5.822;2023-02-26T06:12:54;5.43;;;0.93;;
24443;SDS011;13346;50.984;5.822;2023-02-26T06:15:22;0.40;;;0.40;;
24443;SDS011;13346;50.984;5.822;2023-02-26T06:17:49;0.77;;;0.60;;
24443;SDS011;13346;50.984;5.822;2023-02-26T06:20:18;0.97;;;0.97;;
24443;SDS011;13346;50.984;5.822;2023-02-26T06:22:45;1.97;;;0.90;;
24443;SDS011;13346;50.984;5.822;2023-02-26T06:25:12;0.60;;;0.60;;
24443;SDS011;13346;50.984;5.822;2023-02-26T06:27:39;0.87;;;0.87;;
24443;SDS011;13346;50.984;5.822;2023-02-26T06:30:07;0.47;;;0.47;;
24443;SDS011;13346;50.984;5.822;2023-02-26T06:32:35;0.47;;;0.47;;
24443;SDS011;13346;50.984;5.822;2023-02-26T06:35:02;0.73;;;0.73;;
24443;SDS011;13346;50.984;5.822;2023-02-26T06:37:31;4.37;;;0.87;;
24443;SDS011;13346;50.984;5.822;2023-02-26T06:39:59;0.90;;;0.90;;
24443;SDS011;13346;50.984;5.822;2023-02-26T06:42:26;1.20;;;0.70;;
24443;SDS011;13346;50.984;5.822;2023-02-26T06:44:53;3.67;;;1.07;;
24443;SDS011;13346;50.984;5.822;2023-02-26T06:47:21;0.70;;;0.70;;
24443;SDS011;13346;50.984;5.822;2023-02-26T06:49:48;3.80;;;1.10;;
24443;SDS011;13346;50.984;5.822;2023-02-26T06:52:16;0.97;;;0.77;;
24443;SDS011;13346;50.984;5.822;2023-02-26T06:54:44;0.60;;;0.60;;
24443;SDS011;13346;50.984;5.822;2023-02-26T06:57:12;0.90;;;0.90;;
24443;SDS011;13346;50.984;5.822;2023-02-26T06:59:39;4.80;;;1.27;;
24443;SDS011;13346;50.984;5.822;2023-02-26T07:02:06;3.33;;;1.73;;
24443;SDS011;13346;50.984;5.822;2023-02-26T07:04:36;0.43;;;0.43;;
24443;SDS011;13346;50.984;5.822;2023-02-26T07:07:04;0.20;;;0.20;;
24443;SDS011;13346;50.984;5.822;2023-02-26T07:09:31;2.87;;;1.27;;
24443;SDS011;13346;50.984;5.822;2023-02-26T07:11:59;3.83;;;0.80;;
24443;SDS011;13346;50.984;5.822;2023-02-26T07:14:26;1.87;;;0.53;;
24443;SDS011;13346;50.984;5.822;2023-02-26T07:16:54;0.37;;;0.37;;
24443;SDS011;13346;50.984;5.822;2023-02-26T07:19:21;2.47;;;0.70;;
24443;SDS011;13346;50.984;5.822;2023-02-26T07:21:48;1.27;;;1.00;;
24443;SDS011;13346;50.984;5.822;2023-02-26T07:24:15;1.13;;;1.13;;
24443;SDS011;13346;50.984;5.822;2023-02-26T07:26:43;4.80;;;1.40;;
24443;SDS011;13346;50.984;5.822;2023-02-26T07:29:11;2.80;;;1.10;;
24443;SDS011;13346;50.984;5.822;2023-02-26T07:31:39;0.60;;;0.60;;
24443;SDS011;13346;50.984;5.822;2023-02-26T07:34:06;3.40;;;1.67;;
24443;SDS011;13346;50.984;5.822;2023-02-26T07:36:33;1.07;;;1.07;;
24443;SDS011;13346;50.984;5.822;2023-02-26T07:39:00;0.57;;;0.57;;
24443;SDS011;13346;50.984;5.822;2023-02-26T07:41:27;0.50;;;0.50;;
24443;SDS011;13346;50.984;5.822;2023-02-26T07:43:55;0.50;;;0.50;;
24443;SDS011;13346;50.984;5.822;2023-02-26T07:46:23;3.07;;;0.23;;
24443;SDS011;13346;50.984;5.822;2023-02-26T07:48:50;8.93;;;1.63;;
24443;SDS011;13346;50.984;5.822;2023-02-26T07:51:17;0.40;;;0.40;;
24443;SDS011;13346;50.984;5.822;2023-02-26T07:53:45;0.90;;;0.90;;
24443;SDS011;13346;50.984;5.822;2023-02-26T07:56:12;3.97;;;1.67;;
24443;SDS011;13346;50.984;5.822;2023-02-26T07:58:39;0.67;;;0.40;;
24443;SDS011;13346;50.984;5.822;2023-02-26T08:01:06;5.50;;;0.50;;
24443;SDS011;13346;50.984;5.822;2023-02-26T08:03:35;0.73;;;0.67;;
24443;SDS011;13346;50.984;5.822;2023-02-26T08:06:02;0.63;;;0.63;;
24443;SDS011;13346;50.984;5.822;2023-02-26T08:08:30;1.53;;;0.90;;
24443;SDS011;13346;50.984;5.822;2023-02-26T08:10:57;1.20;;;1.10;;
24443;SDS011;13346;50.984;5.822;2023-02-26T08:13:25;1.07;;;1.07;;
24443;SDS011;13346;50.984;5.822;2023-02-26T08:15:53;0.40;;;0.40;;
24443;SDS011;13346;50.984;5.822;2023-02-26T08:18:20;1.90;;;0.37;;
24443;SDS011;13346;50.984;5.822;2023-02-26T08:20:50;0.53;;;0.53;;
24443;SDS011;13346;50.984;5.822;2023-02-26T08:23:18;3.20;;;1.27;;
24443;SDS011;13346;50.984;5.822;2023-02-26T08:25:45;1.27;;;0.60;;
24443;SDS011;13346;50.984;5.822;2023-02-26T08:28:13;10.73;;;1.10;;
24443;SDS011;13346;50.984;5.822;2023-02-26T08:30:40;3.20;;;0.77;;
24443;SDS011;13346;50.984;5.822;2023-02-26T08:33:07;0.70;;;0.70;;
24443;SDS011;13346;50.984;5.822;2023-02-26T08:35:34;0.70;;;0.70;;
24443;SDS011;13346;50.984;5.822;2023-02-26T08:38:03;5.80;;;1.33;;
24443;SDS011;13346;50.984;5.822;2023-02-26T08:40:30;1.27;;;1.27;;
24443;SDS011;13346;50.984;5.822;2023-02-26T08:42:57;0.60;;;0.60;;
24443;SDS011;13346;50.984;5.822;2023-02-26T08:45:25;1.43;;;1.10;;
24443;SDS011;13346;50.984;5.822;2023-02-26T08:47:52;0.73;;;0.60;;
24443;SDS011;13346;50.984;5.822;2023-02-26T08:50:19;0.93;;;0.93;;
24443;SDS011;13346;50.984;5.822;2023-02-26T08:52:47;1.30;;;0.70;;
24443;SDS011;13346;50.984;5.822;2023-02-26T08:55:15;1.87;;;0.97;;
24443;SDS011;13346;50.984;5.822;2023-02-26T08:57:43;1.23;;;1.13;;
24443;SDS011;13346;50.984;5.822;2023-02-26T09:00:10;0.63;;;0.63;;
24443;SDS011;13346;50.984;5.822;2023-02-26T09:02:40;0.50;;;0.50;;
24443;SDS011;13346;50.984;5.822;2023-02-26T09:05:08;3.13;;;0.67;;
24443;SDS011;13346;50.984;5.822;2023-02-26T09:07:36;8.30;;;1.10;;
24443;SDS011;13346;50.984;5.822;2023-02-26T09:10:04;2.40;;;0.47;;
24443;SDS011;13346;50.984;5.822;2023-02-26T09:12:33;0.57;;;0.40;;
24443;SDS011;13346;50.984;5.822;2023-02-26T09:15:01;1.27;;;0.73;;
24443;SDS011;13346;50.984;5.822;2023-02-26T09:17:29;4.17;;;1.20;;
24443;SDS011;13346;50.984;5.822;2023-02-26T09:19:56;1.70;;;1.60;;
24443;SDS011;13346;50.984;5.822;2023-02-26T09:22:24;1.67;;;0.40;;
24443;SDS011;13346;50.984;5.822;2023-02-26T09:24:51;0.73;;;0.73;;
24443;SDS011;13346;50.984;5.822;2023-02-26T09:27:18;0.40;;;0.40;;
24443;SDS011;13346;50.984;5.822;2023-02-26T09:29:47;0.53;;;0.53;;
24443;SDS011;13346;50.984;5.822;2023-02-26T09:32:14;3.57;;;1.07;;
24443;SDS011;13346;50.984;5.822;2023-02-26T09:34:41;1.00;;;1.00;;
24443;SDS011;13346;50.984;5.822;2023-02-26T09:37:08;0.63;;;0.63;;
24443;SDS011;13346;50.984;5.822;2023-02-26T09:39:36;2.03;;;0.90;;
24443;SDS011;13346;50.984;5.822;2023-02-26T09:42:05;0.90;;;0.83;;
24443;SDS011;13346;50.984;5.822;2023-02-26T09:44:38;0.60;;;0.60;;
24443;SDS011;13346;50.984;5.822;2023-02-26T09:47:11;0.70;;;0.70;;
24443;SDS011;13346;50.984;5.822;2023-02-26T09:49:45;1.80;;;1.70;;
24443;SDS011;13346;50.984;5.822;2023-02-26T09:52:19;1.80;;;0.40;;
24443;SDS011;13346;50.984;5.822;2023-02-26T09:54:50;1.10;;;0.80;;
24443;SDS011;13346;50.984;5.822;2023-02-26T09:57:20;0.50;;;0.50;;
24443;SDS011;13346;50.984;5.822;2023-02-26T09:59:53;1.03;;;1.03;;
24443;SDS011;13346;50.984;5.822;2023-02-26T10:02:23;3.07;;;1.40;;
24443;SDS011;13346;50.984;5.822;2023-02-26T10:04:59;1.10;;;0.83;;
24443;SDS011;13346;50.984;5.822;2023-02-26T10:07:44;0.60;;;0.60;;
24443;SDS011;13346;50.984;5.822;2023-02-26T10:10:19;1.40;;;0.70;;
24443;SDS011;13346;50.984;5.822;2023-02-26T10:12:54;0.60;;;0.60;;
24443;SDS011;13346;50.984;5.822;2023-02-26T10:15:25;1.47;;;0.90;;
24443;SDS011;13346;50.984;5.822;2023-02-26T10:18:01;0.90;;;0.80;;
24443;SDS011;13346;50.984;5.822;2023-02-26T10:20:35;3.30;;;1.00;;
24443;SDS011;13346;50.984;5.822;2023-02-26T10:23:11;1.03;;;0.40;;
24443;SDS011;13346;50.984;5.822;2023-02-26T10:25:44;0.40;;;0.40;;
24443;SDS011;13346;50.984;5.822;2023-02-26T10:28:23;0.90;;;0.90;;
24443;SDS011;13346;50.984;5.822;2023-02-26T10:31:02;0.93;;;0.87;;
24443;SDS011;13346;50.984;5.822;2023-02-26T10:33:37;0.70;;;0.70;;
24443;SDS011;13346;50.984;5.822;2023-02-26T10:36:13;0.67;;;0.67;;
24443;SDS011;13346;50.984;5.822;2023-02-26T10:38:46;0.60;;;0.60;;
24443;SDS011;13346;50.984;5.822;2023-02-26T10:41:17;0.80;;;0.80;;
24443;SDS011;13346;50.984;5.822;2023-02-26T10:43:48;1.07;;;0.60;;
24443;SDS011;13346;50.984;5.822;2023-02-26T10:46:24;0.60;;;0.60;;
24443;SDS011;13346;50.984;5.822;2023-02-26T10:49:02;0.70;;;0.70;;
24443;SDS011;13346;50.984;5.822;2023-02-26T10:51:42;1.07;;;0.60;;
24443;SDS011;13346;50.984;5.822;2023-02-26T10:54:13;3.83;;;0.57;;
24443;SDS011;13346;50.984;5.822;2023-02-26T10:56:43;0.87;;;0.63;;
24443;SDS011;13346;50.984;5.822;2023-02-26T10:59:10;3.70;;;1.30;;
24443;SDS011;13346;50.984;5.822;2023-02-26T11:01:37;0.63;;;0.63;;
24443;SDS011;13346;50.984;5.822;2023-02-26T11:04:06;1.23;;;1.23;;
24443;SDS011;13346;50.984;5.822;2023-02-26T11:06:39;2.80;;;1.03;;
24443;SDS011;13346;50.984;5.822;2023-02-26T11:09:13;0.63;;;0.60;;
24443;SDS011;13346;50.984;5.822;2023-02-26T11:11:46;0.70;;;0.70;;
24443;SDS011;13346;50.984;5.822;2023-02-26T11:14:14;1.60;;;0.57;;
24443;SDS011;13346;50.984;5.822;2023-02-26T11:16:44;0.90;;;0.90;;
24443;SDS011;13346;50.984;5.822;2023-02-26T11:19:16;1.17;;;1.03;;
24443;SDS011;13346;50.984;5.822;2023-02-26T11:21:45;2.90;;;2.63;;
24443;SDS011;13346;50.984;5.822;2023-02-26T11:24:16;0.50;;;0.50;;
24443;SDS011;13346;50.984;5.822;2023-02-26T11:26:49;1.43;;;0.60;;
24443;SDS011;13346;50.984;5.822;2023-02-26T11:29:17;0.90;;;0.50;;
24443;SDS011;13346;50.984;5.822;2023-02-26T11:31:46;0.70;;;0.70;;
24443;SDS011;13346;50.984;5.822;2023-02-26T11:34:20;0.70;;;0.70;;
24443;SDS011;13346;50.984;5.822;2023-02-26T11:36:49;0.60;;;0.60;;
24443;SDS011;13346;50.984;5.822;2023-02-26T11:39:20;0.70;;;0.70;;
24443;SDS011;13346;50.984;5.822;2023-02-26T11:41:52;1.73;;;1.63;;
24443;SDS011;13346;50.984;5.822;2023-02-26T11:44:25;0.40;;;0.40;;
24443;SDS011;13346;50.984;5.822;2023-02-26T11:47:01;0.40;;;0.40;;
24443;SDS011;13346;50.984;5.822;2023-02-26T11:49:32;1.13;;;0.60;;
24443;SDS011;13346;50.984;5.822;2023-02-26T11:52:03;1.70;;;0.80;;
24443;SDS011;13346;50.984;5.822;2023-02-26T11:54:43;1.20;;;0.50;;
24443;SDS011;13346;50.984;5.822;2023-02-26T11:57:15;3.30;;;0.77;;
24443;SDS011;13346;50.984;5.822;2023-02-26T11:59:46;0.50;;;0.50;;
24443;SDS011;13346;50.984;5.822;2023-02-26T12:02:17;2.43;;;0.63;;
24443;SDS011;13346;50.984;5.822;2023-02-26T12:04:48;0.87;;;0.87;;
24443;SDS011;13346;50.984;5.822;2023-02-26T12:07:18;0.57;;;0.57;;
24443;SDS011;13346;50.984;5.822;2023-02-26T12:09:46;0.50;;;0.50;;
24443;SDS011;13346;50.984;5.822;2023-02-26T12:15:16;0.87;;;0.87;;
24443;SDS011;13346;50.984;5.822;2023-02-26T12:17:53;1.53;;;0.57;;
24443;SDS011;13346;50.984;5.822;2023-02-26T12:20:41;2.37;;;0.80;;
24443;SDS011;13346;50.984;5.822;2023-02-26T12:23:20;0.50;;;0.50;;
24443;SDS011;13346;50.984;5.822;2023-02-26T12:26:04;0.87;;;0.87;;
24443;SDS011;13346;50.984;5.822;2023-02-26T12:28:49;3.33;;;0.90;;
24443;SDS011;13346;50.984;5.822;2023-02-26T12:34:43;3.27;;;1.03;;
24443;SDS011;13346;50.984;5.822;2023-02-26T12:37:27;0.90;;;0.90;;
24443;SDS011;13346;50.984;5.822;2023-02-26T12:40:13;0.73;;;0.73;;
24443;SDS011;13346;50.984;5.822;2023-02-26T12:42:57;1.03;;;1.03;;
24443;SDS011;13346;50.984;5.822;2023-02-26T12:45:34;1.20;;;0.83;;
24443;SDS011;13346;50.984;5.822;2023-02-26T12:48:20;0.97;;;0.97;;
24443;SDS011;13346;50.984;5.822;2023-02-26T12:51:13;0.70;;;0.70;;
24443;SDS011;13346;50.984;5.822;2023-02-26T12:56:50;0.50;;;0.50;;
24443;SDS011;13346;50.984;5.822;2023-02-26T12:59:40;0.60;;;0.50;;
24443;SDS011;13346;50.984;5.822;2023-02-26T13:02:49;0.30;;;0.30;;
24443;SDS011;13346;50.984;5.822;2023-02-26T13:05:37;0.53;;;0.53;;
24443;SDS011;13346;50.984;5.822;2023-02-26T13:08:19;0.50;;;0.50;;
24443;SDS011;13346;50.984;5.822;2023-02-26T13:11:03;0.50;;;0.50;;
24443;SDS011;13346;50.984;5.822;2023-02-26T13:13:53;1.27;;;1.20;;
24443;SDS011;13346;50.984;5.822;2023-02-26T13:16:41;0.60;;;0.60;;
24443;SDS011;13346;50.984;5.822;2023-02-26T13:19:18;0.53;;;0.53;;
24443;SDS011;13346;50.984;5.822;2023-02-26T13:21:55;0.40;;;0.40;;
24443;SDS011;13346;50.984;5.822;2023-02-26T13:24:26;3.10;;;0.60;;
24443;SDS011;13346;50.984;5.822;2023-02-26T13:27:01;0.43;;;0.43;;
24443;SDS011;13346;50.984;5.822;2023-02-26T13:29:31;0.40;;;0.40;;
24443;SDS011;13346;50.984;5.822;2023-02-26T13:32:03;0.50;;;0.50;;
24443;SDS011;13346;50.984;5.822;2023-02-26T13:34:38;0.77;;;0.77;;
24443;SDS011;13346;50.984;5.822;2023-02-26T13:37:20;1.10;;;1.10;;
24443;SDS011;13346;50.984;5.822;2023-02-26T13:39:53;0.83;;;0.83;;
24443;SDS011;13346;50.984;5.822;2023-02-26T13:42:32;0.83;;;0.83;;
24443;SDS011;13346;50.984;5.822;2023-02-26T13:45:17;0.53;;;0.53;;
24443;SDS011;13346;50.984;5.822;2023-02-26T13:47:56;0.83;;;0.70;;
24443;SDS011;13346;50.984;5.822;2023-02-26T13:50:39;0.83;;;0.83;;
24443;SDS011;13346;50.984;5.822;2023-02-26T13:56:20;0.20;;;0.20;;
24443;SDS011;13346;50.984;5.822;2023-02-26T14:02:02;0.70;;;0.70;;
24443;SDS011;13346;50.984;5.822;2023-02-26T14:04:49;5.13;;;1.27;;
24443;SDS011;13346;50.984;5.822;2023-02-26T14:07:17;0.60;;;0.60;;
24443;SDS011;13346;50.984;5.822;2023-02-26T14:10:14;0.50;;;0.50;;
24443;SDS011;13346;50.984;5.822;2023-02-26T14:12:42;0.60;;;0.60;;
24443;SDS011;13346;50.984;5.822;2023-02-26T14:18:18;2.57;;;1.10;;
24443;SDS011;13346;50.984;5.822;2023-02-26T14:20:52;0.97;;;0.97;;
24443;SDS011;13346;50.984;5.822;2023-02-26T14:23:57;0.53;;;0.40;;
24443;SDS011;13346;50.984;5.822;2023-02-26T14:26:28;0.50;;;0.50;;
24443;SDS011;13346;50.984;5.822;2023-02-26T14:29:06;0.30;;;0.30;;
24443;SDS011;13346;50.984;5.822;2023-02-26T14:31:49;0.83;;;0.83;;
24443;SDS011;13346;50.984;5.822;2023-02-26T14:34:27;0.87;;;0.87;;
24443;SDS011;13346;50.984;5.822;2023-02-26T14:36:58;0.60;;;0.50;;
24443;SDS011;13346;50.984;5.822;2023-02-26T14:39:29;0.60;;;0.60;;
24443;SDS011;13346;50.984;5.822;2023-02-26T14:42:01;0.70;;;0.70;;
24443;SDS011;13346;50.984;5.822;2023-02-26T14:44:32;0.63;;;0.63;;
24443;SDS011;13346;50.984;5.822;2023-02-26T14:47:05;0.73;;;0.50;;
24443;SDS011;13346;50.984;5.822;2023-02-26T14:49:34;0.70;;;0.70;;
24443;SDS011;13346;50.984;5.822;2023-02-26T14:52:16;0.47;;;0.37;;
24443;SDS011;13346;50.984;5.822;2023-02-26T14:55:02;0.60;;;0.60;;
24443;SDS011;13346;50.984;5.822;2023-02-26T14:57:45;0.60;;;0.60;;
24443;SDS011;13346;50.984;5.822;2023-02-26T15:00:21;3.47;;;0.63;;
24443;SDS011;13346;50.984;5.822;2023-02-26T15:06:04;3.37;;;0.73;;
24443;SDS011;13346;50.984;5.822;2023-02-26T15:08:52;0.50;;;0.50;;
24443;SDS011;13346;50.984;5.822;2023-02-26T15:11:32;0.70;;;0.70;;
24443;SDS011;13346;50.984;5.822;2023-02-26T15:14:28;0.73;;;0.73;;
24443;SDS011;13346;50.984;5.822;2023-02-26T15:17:18;0.77;;;0.60;;
24443;SDS011;13346;50.984;5.822;2023-02-26T15:20:06;0.50;;;0.50;;
24443;SDS011;13346;50.984;5.822;2023-02-26T15:22:49;0.37;;;0.37;;
24443;SDS011;13346;50.984;5.822;2023-02-26T15:25:28;0.40;;;0.40;;
24443;SDS011;13346;50.984;5.822;2023-02-26T15:27:58;0.50;;;0.50;;
24443;SDS011;13346;50.984;5.822;2023-02-26T15:30:26;0.53;;;0.53;;
24443;SDS011;13346;50.984;5.822;2023-02-26T15:32:56;0.60;;;0.60;;
24443;SDS011;13346;50.984;5.822;2023-02-26T15:35:26;0.40;;;0.40;;
24443;SDS011;13346;50.984;5.822;2023-02-26T15:37:56;0.57;;;0.57;;